Purcell, Missouri
Current Conditions -  °F | °C
As of 2:53 AM on Wednesday 26 Nov 2014 (Local Time) from KJLN Reporting Station
Overcast Overcast  
Wind Chill: 32°   Ceiling: 11000
Heat Index: 39°   Visibility: 10mi
Dew Point: 23°   Wind: 12mph
Humidity: 53%   Direction: 170°S
Pressure: 29.97"   Gusts: NA
Location:  37.24°N, 94.44°W
Report Text: KJLN 260853Z AUTO 17010KT 10SM OVC110 04/M05 A2997 RMK AO2 SLP152 T00391050 56029
Loading
Personal Weather Stations






























Interactive Weather Map New forecast layout! Learn more

10-Day Weather Forecast

Advertisements
Track Severe Weather on mobile